createdAt,value
2023-03-23T15:59:45.018Z,2.58
2023-03-23T16:02:21.370Z,2.65
2023-03-23T16:04:49.438Z,2.47
2023-03-23T16:07:17.453Z,2.50
2023-03-23T16:09:45.611Z,2.65
2023-03-23T16:12:14.337Z,2.90
2023-03-23T16:14:42.162Z,2.80
2023-03-23T16:17:15.772Z,2.95
2023-03-23T16:19:43.298Z,3.10
2023-03-23T16:22:11.161Z,3.15
2023-03-23T16:24:38.700Z,3.08
2023-03-23T16:27:06.556Z,2.67
2023-03-23T16:29:59.915Z,2.88
2023-03-23T16:32:23.243Z,2.23
2023-03-23T16:34:50.878Z,2.38
2023-03-23T16:37:18.555Z,2.38
2023-03-23T16:39:46.079Z,2.28
2023-03-23T16:42:13.691Z,2.28
2023-03-23T16:44:41.510Z,1.90
2023-03-23T16:47:09.091Z,2.40
2023-03-23T16:49:37.961Z,2.35
2023-03-23T16:52:05.516Z,2.63
2023-03-23T16:54:33.095Z,2.30
2023-03-23T16:57:00.796Z,2.50
2023-03-23T16:59:28.651Z,2.00
2023-03-23T17:02:00.437Z,2.75
2023-03-23T17:04:28.032Z,2.70
2023-03-23T17:06:58.925Z,2.42
2023-03-23T17:09:26.797Z,3.00
2023-03-23T17:11:54.637Z,3.30
2023-03-23T17:14:22.774Z,3.17
2023-03-23T17:16:50.468Z,3.13
2023-03-23T17:19:18.066Z,3.28
2023-03-23T17:21:45.646Z,3.20
2023-03-23T17:24:14.600Z,2.88
2023-03-23T17:26:42.164Z,3.10
2023-03-23T17:29:10.210Z,3.53
2023-03-23T17:31:37.904Z,3.40
2023-03-23T17:34:05.504Z,2.93
2023-03-23T17:36:33.170Z,3.03
2023-03-23T17:39:00.885Z,3.17
2023-03-23T17:41:29.850Z,3.40
2023-03-23T17:43:57.388Z,2.80
2023-03-23T17:46:25.431Z,3.20
2023-03-23T17:48:53.046Z,2.90
2023-03-23T17:51:21.217Z,2.85
2023-03-23T17:53:49.213Z,2.80
2023-03-23T17:56:16.909Z,3.00
2023-03-23T17:58:45.742Z,2.73
2023-03-23T18:01:13.413Z,2.80
2023-03-23T18:03:41.034Z,2.75
2023-03-23T18:06:09.993Z,2.60
2023-03-23T18:08:38.777Z,2.67
2023-03-23T18:11:07.700Z,2.97
2023-03-23T18:13:36.731Z,2.80
2023-03-23T18:16:07.248Z,2.95
2023-03-23T18:18:35.473Z,3.20
2023-03-23T18:21:06.265Z,2.70
2023-03-23T18:23:39.058Z,2.90
2023-03-23T18:26:14.752Z,3.08
2023-03-23T18:28:42.363Z,3.20
2023-03-23T18:31:14.532Z,3.60
2023-03-23T18:33:46.474Z,3.63
2023-03-23T18:36:15.998Z,4.37
2023-03-23T18:38:44.868Z,3.65
2023-03-23T18:41:13.469Z,9.18
2023-03-23T18:43:41.239Z,6.00
2023-03-23T18:46:09.502Z,4.80
2023-03-23T18:48:38.531Z,3.80
2023-03-23T18:51:07.092Z,4.45
2023-03-23T18:53:34.636Z,4.80
2023-03-23T18:56:07.471Z,6.10
2023-03-23T18:58:35.474Z,5.78
2023-03-23T19:01:05.116Z,4.53
2023-03-23T19:03:32.756Z,4.20
2023-03-23T19:06:02.560Z,3.40
2023-03-23T19:08:31.078Z,3.10
2023-03-23T19:11:01.040Z,3.17
2023-03-23T19:13:29.602Z,3.30
2023-03-23T19:15:57.471Z,2.90
2023-03-23T19:18:25.174Z,2.60
2023-03-23T19:23:25.982Z,2.60
2023-03-23T19:25:54.459Z,2.60
2023-03-23T19:29:05.518Z,2.50
2023-03-23T19:31:09.915Z,2.60
2023-03-23T19:33:37.491Z,2.85
2023-03-23T19:36:11.803Z,2.53
2023-03-23T19:38:42.094Z,2.43
2023-03-23T19:41:09.949Z,2.40
2023-03-23T19:43:37.823Z,2.70
2023-03-23T19:46:06.161Z,2.88
2023-03-23T19:51:02.419Z,2.43
2023-03-23T19:53:30.053Z,3.08
2023-03-23T19:55:59.042Z,2.50
2023-03-23T19:58:27.168Z,2.63
2023-03-23T20:00:54.870Z,2.53
2023-03-23T20:03:22.657Z,2.50
2023-03-23T20:05:50.571Z,2.50
2023-03-23T20:08:18.413Z,2.70
2023-03-23T20:10:45.960Z,3.35
2023-03-23T20:13:14.880Z,2.80
2023-03-23T20:15:42.606Z,2.97
2023-03-23T20:18:14.402Z,3.03
2023-03-23T20:20:41.988Z,2.90
2023-03-23T20:23:09.490Z,2.78
2023-03-23T20:25:37.366Z,3.28
2023-03-23T20:28:06.107Z,2.90
2023-03-23T20:30:35.728Z,3.67
2023-03-23T20:33:03.446Z,3.00
2023-03-23T20:35:31.782Z,3.42
2023-03-23T20:38:00.137Z,3.70
2023-03-23T20:40:27.832Z,3.50
2023-03-23T20:42:57.703Z,2.92
2023-03-23T20:45:25.343Z,3.55
2023-03-23T20:47:54.369Z,3.10
2023-03-23T20:50:22.002Z,3.15
2023-03-23T20:52:49.564Z,3.10
2023-03-23T20:55:17.981Z,3.25
2023-03-23T20:57:45.578Z,3.30
2023-03-23T21:00:16.269Z,3.58
2023-03-23T21:02:43.989Z,3.45
2023-03-23T21:05:12.901Z,3.80
2023-03-23T21:07:40.521Z,3.55
2023-03-23T21:10:08.129Z,3.75
2023-03-23T21:12:35.795Z,4.32
2023-03-23T21:15:03.563Z,4.70
2023-03-23T21:17:31.153Z,4.20
2023-03-23T21:19:59.057Z,4.43
2023-03-23T21:22:28.867Z,5.10
2023-03-23T21:24:56.516Z,4.90
2023-03-23T21:27:24.060Z,5.68
2023-03-23T21:29:51.650Z,5.97
2023-03-23T21:32:19.259Z,6.40
2023-03-23T21:34:47.831Z,6.43
2023-03-23T21:37:16.046Z,6.72
2023-03-23T21:39:45.453Z,8.30
2023-03-23T21:42:14.517Z,11.10
2023-03-23T21:44:43.354Z,7.57
2023-03-23T21:47:12.645Z,7.20
2023-03-23T21:49:41.349Z,7.70
2023-03-23T21:52:09.037Z,7.60
2023-03-23T21:54:36.593Z,8.13
2023-03-23T21:57:05.712Z,8.07
2023-03-23T21:59:33.493Z,8.68
2023-03-23T22:02:02.359Z,7.85
2023-03-23T22:04:30.096Z,8.57
2023-03-23T22:06:57.816Z,8.43
2023-03-23T22:09:26.191Z,7.78
2023-03-23T22:11:53.876Z,8.05
2023-03-23T22:14:22.876Z,8.02
2023-03-23T22:16:50.573Z,7.80
2023-03-23T22:19:18.414Z,8.27
2023-03-23T22:21:46.490Z,7.63
2023-03-23T22:24:14.662Z,8.23
2023-03-23T22:26:42.432Z,8.35
2023-03-23T22:29:11.192Z,7.65
2023-03-23T22:31:41.396Z,7.83
2023-03-23T22:34:09.665Z,7.45
2023-03-23T22:36:38.742Z,7.80
2023-03-23T22:39:07.111Z,8.40
2023-03-23T22:41:37.860Z,8.73
2023-03-23T22:44:05.645Z,8.37
2023-03-23T22:46:33.346Z,8.95
2023-03-23T22:49:02.464Z,8.90
2023-03-23T22:51:30.236Z,8.15
2023-03-23T22:53:57.959Z,7.72
2023-03-23T22:56:25.951Z,8.47
2023-03-23T22:58:54.447Z,8.20
2023-03-23T23:01:23.711Z,8.23
2023-03-23T23:03:51.646Z,8.13
2023-03-23T23:06:21.761Z,7.82
2023-03-23T23:08:49.909Z,7.90
2023-03-23T23:11:19.218Z,7.45
2023-03-23T23:13:47.043Z,8.63
2023-03-23T23:16:17.126Z,8.13
2023-03-23T23:18:46.419Z,7.60
2023-03-23T23:21:16.645Z,8.83
2023-03-23T23:23:46.376Z,8.23
2023-03-23T23:26:15.415Z,7.65
2023-03-23T23:28:43.556Z,7.30
2023-03-23T23:31:19.370Z,7.15
2023-03-23T23:33:47.027Z,6.97
2023-03-23T23:36:15.125Z,7.07
2023-03-23T23:38:42.785Z,7.28
2023-03-23T23:41:12.030Z,6.60
2023-03-23T23:43:39.660Z,7.53
2023-03-23T23:46:07.639Z,6.37
2023-03-23T23:48:35.350Z,6.47
2023-03-23T23:51:03.009Z,6.47
2023-03-23T23:53:31.805Z,5.97
2023-03-23T23:56:02.294Z,5.97
2023-03-23T23:58:31.468Z,5.70
